Time;durP1;ratioP1;P1;durP2;ratioP2;P2;SDS_P1;SDS_P2;PMS_P1;PMS_P2;Temp;Humidity;BMP_temperature;BMP_pressure;BME280_temperature;BME280_humidity;BME280_pressure;Samples;Min_cycle;Max_cycle;Signal;HPM_P1;HPM_P2
2023/10/18 00:00:17;;;;;;;0.60;0.60;;;6.80;65.40;;;;;;5051843;28;20037;-69
2023/10/18 00:02:44;;;;;;;0.70;0.70;;;6.90;65.50;;;;;;5051437;28;20175;-69
2023/10/18 00:05:10;;;;;;;0.70;0.70;;;6.90;65.40;;;;;;5062290;28;20048;-68
2023/10/18 00:07:36;;;;;;;0.50;0.50;;;6.90;65.30;;;;;;5064777;28;20032;-69
2023/10/18 00:10:04;;;;;;;1.02;1.02;;;6.80;65.30;;;;;;5053345;28;20036;-69
2023/10/18 00:12:33;;;;;;;0.50;0.50;;;6.80;65.20;;;;;;5048665;28;20925;-69
2023/10/18 00:14:58;;;;;;;0.50;0.50;;;6.80;65.10;;;;;;5054350;28;20012;-68
2023/10/18 00:17:24;;;;;;;0.55;0.55;;;6.80;65.20;;;;;;5065084;28;20571;-73
2023/10/18 00:19:49;;;;;;;0.68;0.68;;;6.80;65.20;;;;;;5055620;28;20109;-73
2023/10/18 00:22:15;;;;;;;0.75;0.75;;;6.80;65.10;;;;;;5052707;28;20362;-72
2023/10/18 00:24:40;;;;;;;1.25;1.17;;;6.70;65.10;;;;;;5060633;28;20493;-73
2023/10/18 00:27:09;;;;;;;0.60;0.60;;;6.70;65.10;;;;;;5057759;28;20040;-73
2023/10/18 00:29:35;;;;;;;0.50;0.50;;;6.70;65.10;;;;;;5047029;28;20029;-72
2023/10/18 00:32:01;;;;;;;0.98;0.98;;;6.70;65.20;;;;;;5050108;28;20040;-73
2023/10/18 00:34:28;;;;;;;0.85;0.77;;;6.70;65.20;;;;;;5057359;28;20484;-73
2023/10/18 00:36:54;;;;;;;0.50;0.50;;;6.60;65.00;;;;;;5042055;28;20025;-72
2023/10/18 00:39:21;;;;;;;0.65;0.65;;;6.60;64.80;;;;;;5034257;28;20092;-72
2023/10/18 00:41:53;;;;;;;0.60;0.60;;;6.50;64.80;;;;;;5053233;28;20392;-72
2023/10/18 00:44:21;;;;;;;0.70;0.70;;;6.50;64.90;;;;;;5057609;28;20043;-73
2023/10/18 00:46:48;;;;;;;0.50;0.50;;;6.40;65.00;;;;;;5060921;28;20120;-72
2023/10/18 00:49:14;;;;;;;0.60;0.60;;;6.40;65.00;;;;;;5046624;28;20029;-72
2023/10/18 00:51:43;;;;;;;1.50;1.40;;;6.40;65.00;;;;;;5053282;28;20374;-73
2023/10/18 00:54:13;;;;;;;0.70;0.70;;;6.40;65.10;;;;;;5057539;28;20552;-73
2023/10/18 00:56:50;;;;;;;0.50;0.50;;;6.30;65.00;;;;;;5065334;28;20040;-73
2023/10/18 00:59:21;;;;;;;0.60;0.60;;;6.30;65.00;;;;;;5050101;28;20025;-72
2023/10/18 01:01:53;;;;;;;0.52;0.52;;;6.30;65.10;;;;;;5055110;28;20095;-73
2023/10/18 01:04:23;;;;;;;0.50;0.50;;;6.30;65.40;;;;;;5061161;28;20103;-73
2023/10/18 01:06:50;;;;;;;0.57;0.57;;;6.30;65.50;;;;;;5065466;28;20086;-73
2023/10/18 01:09:17;;;;;;;0.50;0.50;;;6.20;65.40;;;;;;5049892;28;20020;-72
2023/10/18 01:11:46;;;;;;;0.50;0.50;;;6.20;65.40;;;;;;5053341;28;20032;-73
2023/10/18 01:14:16;;;;;;;1.40;1.30;;;6.20;65.50;;;;;;5058766;28;20036;-74
2023/10/18 01:16:44;;;;;;;1.33;1.10;;;6.20;65.50;;;;;;5065614;28;20032;-74
2023/10/18 01:19:11;;;;;;;0.55;0.55;;;6.20;65.60;;;;;;5049532;28;20152;-71
2023/10/18 01:21:36;;;;;;;0.50;0.50;;;6.20;65.60;;;;;;5053057;28;20112;-72
2023/10/18 01:24:04;;;;;;;0.68;0.68;;;6.20;65.60;;;;;;5059768;28;20104;-73
2023/10/18 01:26:31;;;;;;;0.50;0.50;;;6.20;65.50;;;;;;5064191;28;20506;-72
2023/10/18 01:29:03;;;;;;;0.60;0.60;;;6.20;65.50;;;;;;5051492;28;20055;-71
2023/10/18 01:31:29;;;;;;;0.88;0.88;;;6.20;65.40;;;;;;5055726;28;20029;-71
2023/10/18 01:33:55;;;;;;;0.50;0.50;;;6.20;65.40;;;;;;5059822;28;20040;-71
2023/10/18 01:36:21;;;;;;;0.85;0.85;;;6.20;65.40;;;;;;5064177;28;20025;-72
2023/10/18 01:38:49;;;;;;;2.70;1.50;;;6.20;65.40;;;;;;5041039;28;20113;-72
2023/10/18 01:41:25;;;;;;;0.50;0.50;;;6.20;65.40;;;;;;5048360;28;20388;-71
2023/10/18 01:43:51;;;;;;;0.63;0.63;;;6.20;65.50;;;;;;5059598;28;20546;-71
2023/10/18 01:46:17;;;;;;;0.50;0.50;;;6.20;65.50;;;;;;5064123;28;20024;-71
2023/10/18 01:48:50;;;;;;;1.17;1.10;;;6.20;65.50;;;;;;5054542;28;20074;-71
2023/10/18 01:51:16;;;;;;;0.50;0.50;;;6.20;65.50;;;;;;5049635;28;20090;-71
2023/10/18 01:53:43;;;;;;;1.30;1.25;;;6.20;65.50;;;;;;5059529;28;20028;-71
2023/10/18 01:56:13;;;;;;;0.63;0.63;;;6.20;65.50;;;;;;5063689;28;20028;-71
2023/10/18 01:58:39;;;;;;;0.70;0.70;;;6.20;65.60;;;;;;5054716;28;20037;-72
2023/10/18 02:01:08;;;;;;;0.68;0.68;;;6.20;65.60;;;;;;5049883;28;20031;-71
2023/10/18 02:03:34;;;;;;;0.60;0.60;;;6.20;65.70;;;;;;5059520;28;20105;-72
2023/10/18 02:06:06;;;;;;;0.60;0.60;;;6.20;65.80;;;;;;5063555;28;20096;-71
2023/10/18 02:08:33;;;;;;;0.50;0.50;;;6.30;65.80;;;;;;5054939;28;20029;-71
2023/10/18 02:10:58;;;;;;;0.50;0.50;;;6.30;65.90;;;;;;5051688;28;20091;-71
2023/10/18 02:13:24;;;;;;;0.50;0.50;;;6.30;65.90;;;;;;5059085;28;20138;-71
2023/10/18 02:15:50;;;;;;;0.77;0.77;;;6.40;65.80;;;;;;5063602;28;20104;-71
2023/10/18 02:18:16;;;;;;;0.70;0.70;;;6.40;65.80;;;;;;5050146;28;20112;-71
2023/10/18 02:20:50;;;;;;;0.90;0.90;;;6.30;65.80;;;;;;5050382;28;20056;-71
2023/10/18 02:23:16;;;;;;;1.35;1.25;;;6.30;65.90;;;;;;5044037;28;20036;-71
2023/10/18 02:28:08;;;;;;;1.02;1.02;;;6.40;66.00;;;;;;5053391;28;20029;-71
2023/10/18 02:30:38;;;;;;;0.60;0.60;;;6.40;66.00;;;;;;5049216;28;20130;-71
2023/10/18 02:33:04;;;;;;;0.77;0.77;;;6.40;65.70;;;;;;5052097;28;20029;-71
2023/10/18 02:35:32;;;;;;;0.85;0.85;;;6.40;65.60;;;;;;5060429;28;20024;-72
2023/10/18 02:37:57;;;;;;;1.45;1.35;;;6.40;65.80;;;;;;5057351;28;20033;-71
2023/10/18 02:40:29;;;;;;;0.60;0.60;;;6.50;65.80;;;;;;5046665;28;20028;-71
2023/10/18 02:42:55;;;;;;;0.57;0.57;;;6.40;65.50;;;;;;5046886;28;20495;-71
2023/10/18 02:45:22;;;;;;;0.60;0.60;;;6.40;65.20;;;;;;5058928;28;20552;-72
2023/10/18 02:47:51;;;;;;;0.57;0.57;;;6.30;65.10;;;;;;5058771;28;20029;-71
2023/10/18 02:50:20;;;;;;;0.60;0.60;;;6.30;65.10;;;;;;5047774;28;20025;-71
2023/10/18 02:52:46;;;;;;;0.80;0.80;;;6.30;65.20;;;;;;5048124;28;20064;-71
2023/10/18 02:55:12;;;;;;;0.60;0.60;;;6.30;65.30;;;;;;5054444;28;20065;-71
2023/10/18 02:57:40;;;;;;;0.75;0.75;;;6.30;65.40;;;;;;5055276;28;20036;-71
2023/10/18 03:00:12;;;;;;;0.50;0.50;;;6.40;65.40;;;;;;5047330;28;20108;-71
2023/10/18 03:02:38;;;;;;;0.65;0.65;;;6.30;65.30;;;;;;5049383;28;20041;-71
2023/10/18 03:05:06;;;;;;;0.40;0.40;;;6.30;65.30;;;;;;5055915;28;20497;-71
2023/10/18 03:07:31;;;;;;;0.60;0.60;;;6.30;65.20;;;;;;5062395;28;20468;-71
2023/10/18 03:10:32;;;;;;;0.60;0.60;;;6.20;65.30;;;;;;5047426;28;20032;-71
2023/10/18 03:12:49;;;;;;;0.70;0.70;;;6.20;65.30;;;;;;5046146;28;20465;-71
2023/10/18 03:15:17;;;;;;;0.95;0.95;;;6.20;65.30;;;;;;5055531;28;20020;-71
2023/10/18 03:17:43;;;;;;;0.75;0.75;;;6.20;65.20;;;;;;5047782;28;20369;-71
2023/10/18 03:20:26;;;;;;;0.52;0.52;;;6.10;65.10;;;;;;5044024;28;20031;-71
2023/10/18 03:22:52;;;;;;;0.52;0.52;;;6.10;65.00;;;;;;5054077;28;20777;-71
2023/10/18 03:25:26;;;;;;;0.50;0.50;;;6.10;65.00;;;;;;5058354;28;20074;-71
2023/10/18 03:27:57;;;;;;;0.60;0.60;;;6.00;65.10;;;;;;5055410;28;20043;-71
2023/10/18 03:30:24;;;;;;;;;;;6.00;65.10;;;;;;5048257;28;20118;-71
2023/10/18 03:32:50;;;;;;;1.50;1.40;;;6.00;65.30;;;;;;5053873;28;19927;-70
2023/10/18 03:35:20;;;;;;;0.55;0.55;;;6.00;65.30;;;;;;5057560;28;20028;-70
2023/10/18 03:37:46;;;;;;;0.60;0.60;;;6.00;65.70;;;;;;5057092;28;20025;-71
2023/10/18 03:40:26;;;;;;;0.75;0.75;;;6.10;65.80;;;;;;5045925;28;20528;-71
2023/10/18 03:42:53;;;;;;;0.60;0.60;;;6.10;65.80;;;;;;5039666;28;20048;-70
2023/10/18 03:45:22;;;;;;;0.73;0.73;;;6.10;66.10;;;;;;5058026;28;20380;-70
2023/10/18 03:47:58;;;;;;;0.50;0.50;;;6.10;66.30;;;;;;5060865;28;20033;-70
2023/10/18 03:50:45;;;;;;;0.60;0.60;;;6.20;66.30;;;;;;5046169;28;20120;-70
2023/10/18 03:53:13;;;;;;;0.68;0.68;;;6.20;66.40;;;;;;5047900;28;20354;-69
2023/10/18 03:55:42;;;;;;;0.70;0.70;;;6.20;66.50;;;;;;5060406;28;20024;-69
2023/10/18 03:58:08;;;;;;;0.98;0.90;;;6.20;66.70;;;;;;5056863;28;20041;-69
2023/10/18 04:00:55;;;;;;;0.52;0.52;;;6.30;67.10;;;;;;5046467;28;20037;-69
2023/10/18 04:03:20;;;;;;;0.95;0.95;;;6.40;67.20;;;;;;5056977;28;20098;-69
2023/10/18 04:05:46;;;;;;;0.90;0.90;;;6.50;66.90;;;;;;5058917;28;20031;-70
2023/10/18 04:08:14;;;;;;;0.50;0.50;;;6.40;66.50;;;;;;5056384;28;20025;-70
2023/10/18 04:10:40;;;;;;;0.60;0.60;;;6.40;66.00;;;;;;5048937;28;20056;-70
2023/10/18 04:13:13;;;;;;;0.55;0.55;;;6.30;65.70;;;;;;5064765;28;20496;-70
2023/10/18 04:15:45;;;;;;;0.73;0.73;;;6.30;65.50;;;;;;5057109;28;20070;-70
2023/10/18 04:18:15;;;;;;;0.82;0.77;;;6.20;65.40;;;;;;5055777;28;20546;-70
2023/10/18 04:20:47;;;;;;;1.05;1.05;;;6.20;65.40;;;;;;5052040;28;20025;-70
2023/10/18 04:23:21;;;;;;;0.50;0.50;;;6.20;65.30;;;;;;5064195;28;20047;-70
2023/10/18 04:26:00;;;;;;;0.55;0.55;;;6.10;65.20;;;;;;5061222;28;20431;-70
2023/10/18 04:28:30;;;;;;;0.60;0.60;;;6.10;65.10;;;;;;5054467;28;20029;-70
2023/10/18 04:31:04;;;;;;;0.65;0.65;;;6.00;65.20;;;;;;5041540;28;20020;-70
2023/10/18 04:33:37;;;;;;;0.55;0.55;;;6.00;65.20;;;;;;5066536;28;20035;-70
2023/10/18 04:36:11;;;;;;;0.60;0.60;;;5.90;65.20;;;;;;5067515;28;20078;-70
2023/10/18 04:38:42;;;;;;;0.60;0.60;;;5.80;65.20;;;;;;5041853;28;20044;-70
2023/10/18 04:41:09;;;;;;;0.57;0.57;;;5.80;65.10;;;;;;5059928;28;20047;-70
2023/10/18 04:43:36;;;;;;;0.80;0.80;;;5.80;65.00;;;;;;5064745;28;20033;-69
2023/10/18 04:46:14;;;;;;;0.50;0.50;;;5.80;65.00;;;;;;5067058;28;20055;-69
2023/10/18 04:51:28;;;;;;;0.55;0.55;;;5.70;65.10;;;;;;5060912;28;20017;-70
2023/10/18 04:54:16;;;;;;;0.70;0.70;;;5.60;65.10;;;;;;5061885;28;20013;-70
2023/10/18 04:56:43;;;;;;;0.60;0.60;;;5.60;65.20;;;;;;5070785;28;20513;-70
2023/10/18 04:59:11;;;;;;;0.55;0.55;;;5.60;65.30;;;;;;5054420;28;20484;-70
2023/10/18 05:01:41;;;;;;;0.80;0.80;;;5.60;65.20;;;;;;5063735;28;20028;-70
2023/10/18 05:04:32;;;;;;;0.60;0.60;;;5.60;65.20;;;;;;5058874;28;20433;-70
2023/10/18 05:06:54;;;;;;;0.75;0.75;;;5.60;65.20;;;;;;5070268;28;20037;-70
2023/10/18 05:09:43;;;;;;;0.60;0.60;;;5.50;65.20;;;;;;5053978;28;20021;-70
2023/10/18 05:12:27;;;;;;;0.60;0.60;;;5.50;65.10;;;;;;5068324;28;20357;-70
2023/10/18 05:15:17;;;;;;;0.50;0.50;;;5.40;65.20;;;;;;5049111;28;20021;-71
2023/10/18 05:17:44;;;;;;;0.60;0.60;;;5.40;65.20;;;;;;5063908;28;20472;-71
2023/10/18 05:23:05;;;;;;;1.17;1.08;;;5.30;65.30;;;;;;5071223;28;20166;-70
2023/10/18 05:25:34;;;;;;;1.20;1.20;;;5.30;65.20;;;;;;5062681;28;20028;-70
2023/10/18 05:28:00;;;;;;;0.60;0.60;;;5.30;65.20;;;;;;5061544;28;20388;-71
2023/10/18 05:33:16;;;;;;;0.85;0.85;;;5.30;65.40;;;;;;5048248;28;20077;-70
2023/10/18 05:35:43;;;;;;;0.68;0.68;;;5.30;65.70;;;;;;5066138;28;20024;-70
2023/10/18 05:43:22;;;;;;;0.70;0.70;;;5.50;66.60;;;;;;5069243;28;20032;-71
2023/10/18 05:45:57;;;;;;;0.60;0.60;;;5.50;66.60;;;;;;5064671;28;20031;-71
2023/10/18 05:48:23;;;;;;;0.80;0.80;;;5.60;66.50;;;;;;5058375;28;20029;-71
2023/10/18 05:50:49;;;;;;;0.73;0.73;;;5.60;66.50;;;;;;5056411;28;20515;-70
2023/10/18 05:53:18;;;;;;;0.63;0.63;;;5.70;66.40;;;;;;5067703;28;20082;-71
2023/10/18 05:55:53;;;;;;;0.60;0.60;;;5.70;66.30;;;;;;5064245;28;20024;-71
2023/10/18 05:58:28;;;;;;;0.85;0.85;;;5.70;66.00;;;;;;5058662;28;20028;-71
2023/10/18 06:00:57;;;;;;;0.80;0.80;;;5.70;65.80;;;;;;5039265;28;20025;-71
2023/10/18 06:03:26;;;;;;;0.50;0.50;;;5.70;65.70;;;;;;5061681;28;20115;-71
2023/10/18 06:05:55;;;;;;;0.60;0.60;;;5.70;65.70;;;;;;5063788;28;20024;-71
2023/10/18 06:08:22;;;;;;;0.70;0.70;;;5.70;65.70;;;;;;5068544;28;20024;-71
2023/10/18 06:10:53;;;;;;;0.60;0.60;;;5.80;65.80;;;;;;5052277;28;20497;-70
2023/10/18 06:13:22;;;;;;;;;;;5.80;65.90;;;;;;5066443;28;20108;-70
2023/10/18 06:15:50;;;;;;;0.60;0.60;;;5.80;66.00;;;;;;5055114;28;19978;-70
2023/10/18 06:18:17;;;;;;;2.00;1.35;;;5.90;66.20;;;;;;5068491;28;20376;-70
2023/10/18 06:20:44;;;;;;;0.55;0.55;;;6.00;66.70;;;;;;5047823;28;20465;-70
2023/10/18 06:25:57;;;;;;;1.52;1.42;;;6.20;67.30;;;;;;5047712;28;20504;-70
2023/10/18 06:28:24;;;;;;;0.80;0.80;;;6.30;67.70;;;;;;5036371;28;20033;-70
2023/10/18 06:30:56;;;;;;;3.83;1.50;;;6.50;68.00;;;;;;5050036;28;20108;-70
2023/10/18 06:33:22;;;;;;;1.02;1.02;;;6.60;68.10;;;;;;5059473;28;20031;-70
2023/10/18 06:35:52;;;;;;;0.70;0.70;;;6.80;68.30;;;;;;5057704;28;20023;-70
2023/10/18 06:38:22;;;;;;;0.70;0.70;;;7.00;68.50;;;;;;5039528;28;20124;-70
2023/10/18 06:43:25;;;;;;;0.50;0.50;;;7.30;68.30;;;;;;5055412;28;20036;-69
2023/10/18 06:45:53;;;;;;;0.50;0.50;;;7.40;68.30;;;;;;5063056;28;20044;-69
2023/10/18 06:48:19;;;;;;;0.50;0.50;;;7.50;68.30;;;;;;5053366;28;20400;-70
2023/10/18 06:50:48;;;;;;;1.17;0.95;;;7.60;68.40;;;;;;5053544;28;20029;-70
2023/10/18 06:53:15;;;;;;;0.60;0.60;;;7.80;68.50;;;;;;5062076;28;20530;-71
2023/10/18 07:01:13;;;;;;;0.45;0.45;;;8.30;69.10;;;;;;5038646;28;20032;-71
2023/10/18 07:03:42;;;;;;;0.77;0.77;;;8.50;69.20;;;;;;5061025;28;20484;-72
2023/10/18 07:06:16;;;;;;;1.08;1.08;;;8.60;69.40;;;;;;5060646;28;20115;-71
2023/10/18 07:08:44;;;;;;;0.70;0.70;;;8.80;69.50;;;;;;5052206;28;20382;-71
2023/10/18 07:11:16;;;;;;;0.77;0.77;;;9.10;69.70;;;;;;5052993;28;20013;-72
2023/10/18 07:13:53;;;;;;;0.68;0.68;;;9.20;69.80;;;;;;5060440;28;20052;-72
2023/10/18 07:16:38;;;;;;;1.25;1.25;;;9.40;69.80;;;;;;5061330;28;20537;-71
2023/10/18 07:19:06;;;;;;;0.52;0.52;;;9.70;69.80;;;;;;5041209;28;20500;-72
2023/10/18 07:21:32;;;;;;;0.50;0.50;;;9.90;69.80;;;;;;5059877;28;20449;-71
2023/10/18 07:24:09;;;;;;;0.77;0.77;;;10.10;69.80;;;;;;5058071;28;20071;-72
2023/10/18 07:26:35;;;;;;;0.80;0.80;;;10.30;69.70;;;;;;5062699;28;20060;-72
2023/10/18 07:29:06;;;;;;;2.17;1.95;;;10.50;69.90;;;;;;5065812;28;20091;-71
2023/10/18 07:31:38;;;;;;;;;;;10.80;70.00;;;;;;5052241;28;20131;-71
2023/10/18 07:34:07;;;;;;;0.70;0.70;;;11.10;70.10;;;;;;5057763;28;19909;-72
2023/10/18 07:36:38;;;;;;;0.93;0.93;;;11.40;70.10;;;;;;5067172;28;20554;-72
2023/10/18 07:39:04;;;;;;;0.52;0.52;;;11.70;70.50;;;;;;5044081;28;20516;-72
2023/10/18 07:41:34;;;;;;;1.10;1.10;;;11.90;70.30;;;;;;5059114;28;20334;-72
2023/10/18 07:44:00;;;;;;;2.47;1.60;;;12.20;70.30;;;;;;5052109;28;20025;-72
2023/10/18 07:46:27;;;;;;;1.10;1.10;;;12.40;70.30;;;;;;5066869;28;20041;-72
2023/10/18 07:48:54;;;;;;;0.80;0.80;;;12.70;70.00;;;;;;5034360;28;20485;-72
2023/10/18 07:51:26;;;;;;;1.10;1.08;;;12.90;70.00;;;;;;5055853;28;20020;-73
2023/10/18 07:53:53;;;;;;;0.68;0.57;;;13.20;69.60;;;;;;5058392;28;20048;-73
2023/10/18 07:56:31;;;;;;;0.60;0.60;;;13.40;70.30;;;;;;5064383;28;20639;-73
2023/10/18 07:59:27;;;;;;;0.80;0.80;;;13.70;70.50;;;;;;5034983;28;20069;-73
2023/10/18 08:02:07;;;;;;;0.52;0.52;;;14.00;70.20;;;;;;5061000;28;20093;-73
2023/10/18 08:04:33;;;;;;;0.40;0.40;;;14.20;69.70;;;;;;5056205;28;20158;-73
2023/10/18 08:07:00;;;;;;;1.35;1.17;;;14.50;70.00;;;;;;5065223;28;20620;-73
2023/10/18 08:09:29;;;;;;;1.40;1.30;;;14.60;69.50;;;;;;5066364;28;20426;-71
2023/10/18 08:11:56;;;;;;;0.80;0.68;;;14.80;69.10;;;;;;5066608;28;20035;-72
2023/10/18 08:14:24;;;;;;;0.77;0.77;;;14.80;68.10;;;;;;5058773;28;20036;-73
2023/10/18 08:16:55;;;;;;;0.60;0.60;;;14.80;67.90;;;;;;5044022;28;20025;-72
2023/10/18 08:19:25;;;;;;;;;;;14.80;68.00;;;;;;5047102;28;20047;-72
2023/10/18 08:22:21;;;;;;;1.48;1.38;;;14.80;67.70;;;;;;5055821;28;19913;-73
2023/10/18 08:24:49;;;;;;;0.80;0.80;;;14.80;67.50;;;;;;5064869;28;20500;-72
2023/10/18 08:27:15;;;;;;;0.70;0.70;;;14.70;67.40;;;;;;5063907;28;20025;-73
2023/10/18 08:29:41;;;;;;;0.70;0.70;;;14.70;67.50;;;;;;5044983;28;20442;-73
2023/10/18 08:32:17;;;;;;;0.50;0.50;;;14.70;67.90;;;;;;5069795;28;20101;-73
2023/10/18 08:34:48;;;;;;;1.40;1.30;;;14.70;67.90;;;;;;5054147;28;20029;-73
2023/10/18 08:37:14;;;;;;;0.70;0.70;;;14.70;68.10;;;;;;5065405;28;20083;-73
2023/10/18 08:39:40;;;;;;;0.40;0.40;;;14.70;67.60;;;;;;5038861;28;20038;-73
2023/10/18 08:42:10;;;;;;;0.45;0.45;;;14.60;67.60;;;;;;5062549;28;20036;-73
2023/10/18 08:44:38;;;;;;;1.13;1.10;;;14.60;67.40;;;;;;5058189;28;20025;-72
2023/10/18 08:49:44;;;;;;;0.50;0.50;;;14.70;68.50;;;;;;5066181;28;20087;-72
2023/10/18 08:52:10;;;;;;;1.35;1.25;;;14.80;68.70;;;;;;5049545;28;20029;-72
2023/10/18 08:54:41;;;;;;;0.80;0.80;;;14.80;68.30;;;;;;5062341;28;20087;-72
2023/10/18 08:57:09;;;;;;;0.55;0.55;;;14.80;67.80;;;;;;5067876;28;20546;-72
2023/10/18 08:59:46;;;;;;;1.38;1.30;;;14.80;67.10;;;;;;5043717;28;20110;-71
2023/10/18 09:02:17;;;;;;;0.80;0.80;;;14.80;67.50;;;;;;5064206;28;20020;-72
2023/10/18 09:04:48;;;;;;;0.77;0.77;;;14.80;68.00;;;;;;5062054;28;20119;-73
2023/10/18 09:07:42;;;;;;;0.47;0.47;;;14.80;67.30;;;;;;5066253;28;20496;-71
2023/10/18 09:10:13;;;;;;;2.85;1.23;;;14.80;67.50;;;;;;5048016;28;20037;-71
2023/10/18 09:17:58;;;;;;;0.90;0.90;;;15.10;68.20;;;;;;5061252;28;20090;-71
2023/10/18 09:20:27;;;;;;;0.63;0.63;;;15.10;67.80;;;;;;5039915;28;20037;-71
2023/10/18 09:22:53;;;;;;;1.02;1.02;;;15.10;67.10;;;;;;5040038;28;20517;-71
2023/10/18 09:25:24;;;;;;;0.50;0.50;;;15.10;67.20;;;;;;5060835;28;20488;-71
2023/10/18 09:27:51;;;;;;;1.02;1.02;;;15.10;66.90;;;;;;5055412;28;20033;-71
2023/10/18 09:30:20;;;;;;;0.75;0.75;;;15.10;67.30;;;;;;5053709;28;20032;-71
2023/10/18 09:32:46;;;;;;;3.05;1.80;;;15.10;66.60;;;;;;5068271;28;20047;-71
2023/10/18 09:35:13;;;;;;;0.50;0.50;;;15.10;66.90;;;;;;5057436;28;20025;-70
2023/10/18 09:37:39;;;;;;;0.98;0.98;;;15.20;67.30;;;;;;5055505;28;20112;-70
2023/10/18 09:40:05;;;;;;;0.63;0.63;;;15.30;66.90;;;;;;5046822;28;20153;-72
2023/10/18 09:42:31;;;;;;;1.10;1.00;;;15.30;66.60;;;;;;5062815;28;20091;-72
2023/10/18 09:44:57;;;;;;;1.05;1.05;;;15.50;67.30;;;;;;5065380;28;20041;-72
2023/10/18 09:47:26;;;;;;;0.40;0.40;;;15.60;67.50;;;;;;5060438;28;20531;-71
2023/10/18 09:49:54;;;;;;;0.70;0.70;;;15.70;67.30;;;;;;5054153;28;20116;-71
2023/10/18 09:52:23;;;;;;;0.68;0.68;;;15.80;67.10;;;;;;5061211;28;20100;-72
2023/10/18 09:54:50;;;;;;;0.60;0.60;;;15.90;66.60;;;;;;5059134;28;20472;-71
2023/10/18 09:57:24;;;;;;;1.20;1.10;;;16.00;67.30;;;;;;5062993;28;20017;-71
2023/10/18 09:59:57;;;;;;;0.70;0.70;;;16.10;66.80;;;;;;5061375;28;20488;-72
2023/10/18 10:02:24;;;;;;;0.60;0.60;;;16.20;67.20;;;;;;5045265;28;20027;-72
2023/10/18 10:04:54;;;;;;;0.60;0.60;;;16.50;68.10;;;;;;5064290;28;20033;-72
2023/10/18 10:07:37;;;;;;;1.35;1.25;;;16.60;65.20;;;;;;5063890;28;20116;-72
2023/10/18 10:10:09;;;;;;;0.70;0.70;;;16.70;64.30;;;;;;5052486;28;20039;-71
2023/10/18 10:12:36;;;;;;;1.02;0.95;;;16.80;64.90;;;;;;5064307;28;20021;-72
2023/10/18 10:15:03;;;;;;;0.98;0.98;;;16.90;63.50;;;;;;5064990;28;20032;-72
2023/10/18 10:17:31;;;;;;;0.68;0.68;;;17.00;64.20;;;;;;5054591;28;20511;-72
2023/10/18 10:20:10;;;;;;;0.95;0.93;;;17.20;63.10;;;;;;5050119;28;20537;-72
2023/10/18 10:22:38;;;;;;;0.68;0.68;;;17.40;63.10;;;;;;5068288;28;20024;-71
2023/10/18 10:25:04;;;;;;;1.08;1.00;;;17.60;59.90;;;;;;5063103;28;20506;-71
2023/10/18 10:30:03;;;;;;;1.10;1.00;;;17.80;62.60;;;;;;5052652;28;20480;-72
2023/10/18 10:32:30;;;;;;;0.82;0.82;;;18.10;61.80;;;;;;5068597;28;20029;-71
2023/10/18 10:35:16;;;;;;;0.80;0.80;;;18.30;60.80;;;;;;5055895;28;20468;-72
2023/10/18 10:37:55;;;;;;;0.80;0.80;;;18.40;56.70;;;;;;5055698;28;20032;-71
2023/10/18 10:43:08;;;;;;;0.80;0.80;;;18.60;55.90;;;;;;5039664;28;20031;-72
2023/10/18 10:45:43;;;;;;;0.75;0.75;;;18.60;54.10;;;;;;5058807;28;20029;-71
2023/10/18 10:50:50;;;;;;;1.23;0.98;;;18.70;51.70;;;;;;5052568;28;20434;-70
2023/10/18 10:53:48;;;;;;;0.95;0.95;;;18.60;50.10;;;;;;5062020;28;20476;-70
2023/10/18 10:56:23;;;;;;;2.67;1.80;;;18.60;50.50;;;;;;5066542;28;20071;-70
2023/10/18 11:02:21;;;;;;;0.63;0.63;;;19.10;53.50;;;;;;5061659;28;20032;-71
2023/10/18 11:04:46;;;;;;;0.85;0.75;;;19.20;50.70;;;;;;5050932;28;20098;-71
2023/10/18 11:07:21;;;;;;;1.65;1.40;;;19.40;50.90;;;;;;5065946;28;20016;-71
2023/10/18 11:09:47;;;;;;;0.50;0.50;;;19.50;46.60;;;;;;5052309;28;20029;-71
2023/10/18 11:12:17;;;;;;;1.75;0.98;;;19.50;46.30;;;;;;5065055;28;20036;-69
2023/10/18 11:14:43;;;;;;;0.68;0.60;;;19.70;46.10;;;;;;5053870;28;20123;-70
2023/10/18 11:19:42;;;;;;;0.73;0.73;;;19.80;45.60;;;;;;5046022;28;20112;-70
2023/10/18 11:22:14;;;;;;;0.70;0.70;;;19.90;44.60;;;;;;5059518;28;20040;-70
2023/10/18 11:24:41;;;;;;;2.38;1.30;;;20.00;44.20;;;;;;5053470;28;20060;-70
2023/10/18 11:27:09;;;;;;;2.40;1.08;;;20.10;42.00;;;;;;5047109;28;20032;-70
2023/10/18 11:29:41;;;;;;;0.40;0.40;;;20.20;42.90;;;;;;5062164;28;20392;-69
2023/10/18 11:32:15;;;;;;;0.60;0.60;;;20.20;43.20;;;;;;5054151;28;20033;-70
2023/10/18 11:34:43;;;;;;;0.80;0.80;;;20.40;44.50;;;;;;5060690;28;20029;-69
2023/10/18 11:37:09;;;;;;;0.90;0.90;;;20.60;41.60;;;;;;5055596;28;20031;-70
2023/10/18 11:39:36;;;;;;;0.65;0.65;;;20.60;41.00;;;;;;5040512;28;20365;-70
2023/10/18 11:42:02;;;;;;;0.50;0.50;;;20.60;40.80;;;;;;5063626;28;20024;-70
2023/10/18 11:44:31;;;;;;;0.60;0.60;;;20.40;40.00;;;;;;5054179;28;20376;-70
2023/10/18 11:47:20;;;;;;;0.65;0.65;;;20.10;39.00;;;;;;5057633;28;20032;-70
2023/10/18 11:49:54;;;;;;;0.95;0.90;;;19.80;39.10;;;;;;5059813;28;20083;-70
2023/10/18 11:52:25;;;;;;;0.75;0.75;;;19.50;39.30;;;;;;5053764;28;20393;-70
2023/10/18 11:54:54;;;;;;;1.17;0.88;;;19.30;39.90;;;;;;5062346;28;20048;-70
2023/10/18 11:57:30;;;;;;;0.70;0.70;;;19.30;40.70;;;;;;5060978;28;20025;-70
2023/10/18 12:00:20;;;;;;;0.88;0.88;;;19.30;40.80;;;;;;5043015;28;20021;-70
2023/10/18 12:02:43;;;;;;;0.75;0.50;;;19.40;39.60;;;;;;5067159;28;20488;-70
2023/10/18 12:05:10;;;;;;;0.60;0.60;;;19.50;40.30;;;;;;5052319;28;20031;-70
2023/10/18 12:07:44;;;;;;;0.40;0.40;;;19.70;40.30;;;;;;5061311;28;20033;-70
2023/10/18 12:10:15;;;;;;;0.50;0.50;;;19.80;39.70;;;;;;5047361;28;20119;-70
2023/10/18 12:12:41;;;;;;;0.70;0.70;;;19.80;39.10;;;;;;5052797;28;20477;-70
2023/10/18 12:15:07;;;;;;;0.73;0.73;;;19.80;39.20;;;;;;5062792;28;20028;-70
2023/10/18 12:17:33;;;;;;;0.60;0.60;;;19.90;38.90;;;;;;5061964;28;20469;-70
2023/10/18 12:19:58;;;;;;;0.82;0.82;;;19.90;38.50;;;;;;5044161;28;20029;-70
2023/10/18 12:22:24;;;;;;;0.40;0.40;;;19.90;38.40;;;;;;5067204;28;20039;-71
2023/10/18 12:24:50;;;;;;;0.50;0.50;;;19.80;38.40;;;;;;5051239;28;20480;-71
2023/10/18 12:27:19;;;;;;;0.60;0.60;;;19.80;38.40;;;;;;5055590;28;20078;-71
2023/10/18 12:29:45;;;;;;;0.77;0.77;;;19.80;38.10;;;;;;5049144;28;20423;-70
2023/10/18 12:32:26;;;;;;;2.50;1.23;;;19.70;38.30;;;;;;5065113;28;20016;-70
2023/10/18 12:34:56;;;;;;;0.47;0.47;;;19.50;38.20;;;;;;5053441;28;20028;-71
2023/10/18 12:37:26;;;;;;;0.70;0.70;;;19.30;38.10;;;;;;5048652;28;20018;-70
2023/10/18 12:39:51;;;;;;;0.60;0.60;;;19.20;38.40;;;;;;5044628;28;20072;-70
2023/10/18 12:42:21;;;;;;;0.70;0.70;;;19.00;38.70;;;;;;5045566;28;20029;-70
2023/10/18 12:44:46;;;;;;;0.50;0.50;;;19.00;39.00;;;;;;5058941;28;20498;-70
2023/10/18 12:47:21;;;;;;;0.60;0.60;;;18.80;38.90;;;;;;5064692;28;20056;-70
2023/10/18 12:49:51;;;;;;;1.23;1.13;;;18.80;39.50;;;;;;5048998;28;20040;-71
2023/10/18 12:52:52;;;;;;;0.52;0.52;;;18.70;40.00;;;;;;5069425;28;20039;-70
2023/10/18 12:57:54;;;;;;;0.55;0.55;;;18.60;40.20;;;;;;5062038;28;20508;-70
2023/10/18 13:00:24;;;;;;;0.40;0.40;;;18.60;40.50;;;;;;5050640;28;20029;-71
2023/10/18 13:05:23;;;;;;;1.50;1.40;;;18.60;40.10;;;;;;5057459;28;20031;-71
2023/10/18 13:07:55;;;;;;;0.50;0.50;;;18.70;40.90;;;;;;5055753;28;20107;-71
2023/10/18 13:10:29;;;;;;;0.60;0.60;;;18.70;41.40;;;;;;5058092;28;20499;-70
2023/10/18 13:12:55;;;;;;;0.60;0.60;;;18.80;41.50;;;;;;5050266;28;20032;-69
2023/10/18 13:15:22;;;;;;;0.40;0.40;;;18.90;41.80;;;;;;5065427;28;20031;-69
2023/10/18 13:17:48;;;;;;;0.40;0.40;;;18.90;40.90;;;;;;5059253;28;20048;-70
2023/10/18 13:20:15;;;;;;;0.65;0.65;;;18.80;41.00;;;;;;5048798;28;20108;-69
2023/10/18 13:22:42;;;;;;;0.60;0.60;;;18.90;40.90;;;;;;5066961;28;20051;-69
2023/10/18 13:25:09;;;;;;;0.82;0.82;;;18.90;40.90;;;;;;5065041;28;20033;-69
2023/10/18 13:27:40;;;;;;;0.77;0.77;;;18.90;40.30;;;;;;5062158;28;20478;-69
2023/10/18 13:32:50;;;;;;;1.15;1.05;;;18.70;40.30;;;;;;5054243;28;20109;-69
2023/10/18 13:35:16;;;;;;;0.40;0.40;;;18.70;40.30;;;;;;5048117;28;20493;-69
2023/10/18 13:37:43;;;;;;;0.60;0.60;;;18.60;40.30;;;;;;5039134;28;20412;-69
2023/10/18 13:40:18;;;;;;;0.98;0.98;;;18.60;40.30;;;;;;5044957;28;20396;-69
2023/10/18 13:42:45;;;;;;;0.73;0.73;;;18.50;40.60;;;;;;5068154;28;20045;-69
2023/10/18 13:45:14;;;;;;;1.10;0.93;;;18.40;40.90;;;;;;5053800;28;20089;-69
2023/10/18 13:47:39;;;;;;;0.95;0.90;;;18.40;40.70;;;;;;5062807;28;20059;-69
2023/10/18 13:50:09;;;;;;;0.63;0.63;;;18.40;41.30;;;;;;5041251;28;20033;-70
2023/10/18 13:52:36;;;;;;;0.90;0.90;;;18.40;41.40;;;;;;5066797;28;20112;-68
2023/10/18 13:55:02;;;;;;;1.05;1.05;;;18.40;41.10;;;;;;5051591;28;20032;-68
2023/10/18 13:57:28;;;;;;;0.43;0.43;;;18.30;41.20;;;;;;5049222;28;20025;-70
2023/10/18 13:59:54;;;;;;;2.45;0.82;;;18.30;41.10;;;;;;5060494;28;20029;-69
2023/10/18 14:02:26;;;;;;;0.65;0.65;;;18.30;41.40;;;;;;5061116;28;20033;-69